createdAt,value
2022-09-26T00:00:23.483Z,26.65
2022-09-26T00:01:23.630Z,26.72
2022-09-26T00:02:23.527Z,26.69
2022-09-26T00:03:23.479Z,26.69
2022-09-26T00:04:26.009Z,26.70
2022-09-26T00:05:23.478Z,26.67
2022-09-26T00:06:23.583Z,26.65
2022-09-26T00:07:23.479Z,26.66
2022-09-26T00:08:23.478Z,26.67
2022-09-26T00:09:23.478Z,26.69
2022-09-26T00:10:23.477Z,26.70
2022-09-26T00:11:23.477Z,26.72
2022-09-26T00:12:23.477Z,26.72
2022-09-26T00:13:23.479Z,26.70
2022-09-26T00:14:23.486Z,26.57
2022-09-26T00:15:23.478Z,26.70
2022-09-26T00:16:23.568Z,26.65
2022-09-26T00:17:23.481Z,26.70
2022-09-26T00:18:23.478Z,26.72
2022-09-26T00:19:23.482Z,26.75
2022-09-26T00:20:23.476Z,26.65
2022-09-26T00:21:23.482Z,26.62
2022-09-26T00:22:23.497Z,26.67
2022-09-26T00:23:23.479Z,26.57
2022-09-26T00:24:23.476Z,26.72
2022-09-26T00:25:23.481Z,26.67
2022-09-26T00:26:23.483Z,26.73
2022-09-26T00:27:23.479Z,26.72
2022-09-26T00:28:23.477Z,26.62
2022-09-26T00:29:23.477Z,26.66
2022-09-26T00:30:23.530Z,26.70
2022-09-26T00:31:23.588Z,26.67
2022-09-26T00:32:23.480Z,26.67
2022-09-26T00:33:23.480Z,26.69
2022-09-26T00:34:23.475Z,26.72
2022-09-26T00:35:23.479Z,26.67
2022-09-26T00:36:29.730Z,26.63
2022-09-26T00:37:23.478Z,26.67
2022-09-26T00:38:23.594Z,26.73
2022-09-26T00:39:23.476Z,26.67
2022-09-26T00:40:23.570Z,26.65
2022-09-26T00:41:23.478Z,26.69
2022-09-26T00:42:23.474Z,26.60
2022-09-26T00:43:23.477Z,26.67
2022-09-26T00:44:23.475Z,26.66
2022-09-26T00:45:23.478Z,26.65
2022-09-26T00:46:23.517Z,26.70
2022-09-26T00:47:23.477Z,26.67
2022-09-26T00:48:23.475Z,26.66
2022-09-26T00:49:23.478Z,26.72
2022-09-26T00:50:23.487Z,26.75
2022-09-26T00:51:23.476Z,26.72
2022-09-26T00:52:23.477Z,26.69
2022-09-26T00:53:23.479Z,26.70
2022-09-26T00:54:23.495Z,26.65
2022-09-26T00:55:23.476Z,26.67
2022-09-26T00:56:23.476Z,26.70
2022-09-26T00:57:23.477Z,26.67
2022-09-26T00:58:23.474Z,26.63
2022-09-26T00:59:23.478Z,26.67
2022-09-26T01:00:23.475Z,26.69
2022-09-26T01:01:23.616Z,26.58
2022-09-26T01:02:23.630Z,26.72
2022-09-26T01:03:23.475Z,26.67
2022-09-26T01:04:23.474Z,26.58
2022-09-26T01:05:23.477Z,26.65
2022-09-26T01:06:23.474Z,26.69
2022-09-26T01:07:23.475Z,26.63
2022-09-26T01:08:23.475Z,26.65
2022-09-26T01:09:23.475Z,26.72
2022-09-26T01:10:23.497Z,26.69
2022-09-26T01:11:23.479Z,26.60
2022-09-26T01:12:23.475Z,26.60
2022-09-26T01:13:23.499Z,26.65
2022-09-26T01:14:23.473Z,26.65
2022-09-26T01:15:23.476Z,26.72
2022-09-26T01:16:23.511Z,26.62
2022-09-26T01:17:23.475Z,26.65
2022-09-26T01:18:23.473Z,26.65
2022-09-26T01:19:23.476Z,26.65
2022-09-26T01:20:23.473Z,26.65
2022-09-26T01:21:23.476Z,26.67
2022-09-26T01:22:23.474Z,26.63
2022-09-26T01:23:23.473Z,26.67
2022-09-26T01:24:23.474Z,26.73
2022-09-26T01:25:23.474Z,26.72
2022-09-26T01:26:23.497Z,26.67
2022-09-26T01:27:23.475Z,26.70
2022-09-26T01:28:23.475Z,26.70
2022-09-26T01:29:23.474Z,26.63
2022-09-26T01:30:23.589Z,26.66
2022-09-26T01:31:23.557Z,26.65
2022-09-26T01:32:23.477Z,26.65
2022-09-26T01:33:23.488Z,26.67
2022-09-26T01:34:23.474Z,26.65
2022-09-26T01:35:23.472Z,26.69
2022-09-26T01:36:23.474Z,26.62
2022-09-26T01:37:23.474Z,26.67
2022-09-26T01:38:23.473Z,26.65
2022-09-26T01:39:23.472Z,26.62
2022-09-26T01:40:23.524Z,26.62
2022-09-26T01:41:23.473Z,26.63
2022-09-26T01:42:23.497Z,26.75
2022-09-26T01:43:23.473Z,26.67
2022-09-26T01:44:23.474Z,26.69
2022-09-26T01:45:23.473Z,26.67
2022-09-26T01:46:23.518Z,26.58
2022-09-26T01:47:23.478Z,26.63
2022-09-26T01:48:23.474Z,26.69
2022-09-26T01:49:23.473Z,26.62
2022-09-26T01:50:23.474Z,26.72
2022-09-26T01:51:23.472Z,26.75
2022-09-26T01:52:23.475Z,26.65
2022-09-26T01:53:23.474Z,26.66
2022-09-26T01:54:23.472Z,26.65
2022-09-26T01:55:23.472Z,26.65
2022-09-26T01:56:23.473Z,26.58
2022-09-26T01:57:23.474Z,26.65
2022-09-26T01:58:23.537Z,26.69
2022-09-26T01:59:23.474Z,26.65
2022-09-26T02:00:23.474Z,26.69
2022-09-26T02:01:23.577Z,26.65
2022-09-26T02:02:23.523Z,26.63
2022-09-26T02:03:23.473Z,26.67
2022-09-26T02:04:23.473Z,26.67
2022-09-26T02:05:23.473Z,26.72
2022-09-26T02:06:23.472Z,26.67
2022-09-26T02:07:23.471Z,26.65
2022-09-26T02:08:23.474Z,26.69
2022-09-26T02:09:23.472Z,26.65
2022-09-26T02:10:23.472Z,26.66
2022-09-26T02:11:23.470Z,26.66
2022-09-26T02:12:23.472Z,26.72
2022-09-26T02:13:23.472Z,26.67
2022-09-26T02:14:23.494Z,26.62
2022-09-26T02:15:23.471Z,26.65
2022-09-26T02:16:23.555Z,26.70
2022-09-26T02:17:23.471Z,26.65
2022-09-26T02:18:23.474Z,26.66
2022-09-26T02:19:23.470Z,26.65
2022-09-26T02:20:23.472Z,26.70
2022-09-26T02:21:23.472Z,26.66
2022-09-26T02:22:23.471Z,26.66
2022-09-26T02:23:23.471Z,26.67
2022-09-26T02:24:23.471Z,26.66
2022-09-26T02:25:23.474Z,26.62
2022-09-26T02:26:23.475Z,26.62
2022-09-26T02:27:23.470Z,26.66
2022-09-26T02:28:23.473Z,26.66
2022-09-26T02:29:23.471Z,26.63
2022-09-26T02:30:23.494Z,26.75
2022-09-26T02:31:23.552Z,26.66
2022-09-26T02:32:23.473Z,26.65
2022-09-26T02:33:23.470Z,26.72
2022-09-26T02:34:23.475Z,26.67
2022-09-26T02:35:23.473Z,26.76
2022-09-26T02:36:23.474Z,26.69
2022-09-26T02:37:23.469Z,26.69
2022-09-26T02:38:23.471Z,26.58
2022-09-26T02:39:23.469Z,26.63
2022-09-26T02:40:23.563Z,26.65
2022-09-26T02:41:23.470Z,26.58
2022-09-26T02:42:23.471Z,26.62
2022-09-26T02:43:23.469Z,26.63
2022-09-26T02:44:23.471Z,26.65
2022-09-26T02:45:23.555Z,26.67
2022-09-26T02:46:23.517Z,26.67
2022-09-26T02:47:23.470Z,26.66
2022-09-26T02:48:23.469Z,26.66
2022-09-26T02:49:23.469Z,26.63
2022-09-26T02:50:23.470Z,26.63
2022-09-26T02:51:23.470Z,26.67
2022-09-26T02:52:23.472Z,26.67
2022-09-26T02:53:23.469Z,26.75
2022-09-26T02:54:23.469Z,26.67
2022-09-26T02:55:23.472Z,26.66
2022-09-26T02:56:23.490Z,26.72
2022-09-26T02:57:23.472Z,26.58
2022-09-26T02:58:23.470Z,26.73
2022-09-26T02:59:23.468Z,26.69
2022-09-26T03:00:23.470Z,26.62
2022-09-26T03:01:23.539Z,26.65
2022-09-26T03:02:23.498Z,26.63
2022-09-26T03:03:23.539Z,26.63
2022-09-26T03:04:23.539Z,26.63
2022-09-26T03:05:23.469Z,26.69
2022-09-26T03:06:23.469Z,26.63
2022-09-26T03:07:23.469Z,26.62
2022-09-26T03:08:23.470Z,26.63
2022-09-26T03:09:23.468Z,26.67
2022-09-26T03:10:23.468Z,26.66
2022-09-26T03:11:23.468Z,26.60
2022-09-26T03:12:23.470Z,26.67
2022-09-26T03:13:23.475Z,26.72
2022-09-26T03:14:23.468Z,26.63
2022-09-26T03:15:23.467Z,26.63
2022-09-26T03:16:23.532Z,26.65
2022-09-26T03:17:23.469Z,26.62
2022-09-26T03:18:23.491Z,26.66
2022-09-26T03:19:23.468Z,26.63
2022-09-26T03:20:23.468Z,26.65
2022-09-26T03:21:23.475Z,26.70
2022-09-26T03:22:23.469Z,26.63
2022-09-26T03:23:23.468Z,26.62
2022-09-26T03:24:23.468Z,26.67
2022-09-26T03:25:23.467Z,26.63
2022-09-26T03:26:23.469Z,26.62
2022-09-26T03:27:23.466Z,26.63
2022-09-26T03:28:23.469Z,26.62
2022-09-26T03:29:23.469Z,26.65
2022-09-26T03:30:23.469Z,26.65
2022-09-26T03:31:23.512Z,26.65
2022-09-26T03:32:23.469Z,26.62
2022-09-26T03:33:23.468Z,26.72
2022-09-26T03:34:23.491Z,26.65
2022-09-26T03:35:23.466Z,26.63
2022-09-26T03:36:23.475Z,26.66
2022-09-26T03:37:23.467Z,26.69
2022-09-26T03:38:23.467Z,26.63
2022-09-26T03:39:23.467Z,26.69
2022-09-26T03:40:23.569Z,26.63
2022-09-26T03:41:23.466Z,26.73
2022-09-26T03:42:23.467Z,26.62
2022-09-26T03:43:23.467Z,26.67
2022-09-26T03:44:23.467Z,26.62
2022-09-26T03:45:23.539Z,26.63
2022-09-26T03:46:23.466Z,26.62
2022-09-26T03:47:23.466Z,26.66
2022-09-26T03:48:23.467Z,26.57
2022-09-26T03:49:23.467Z,26.63
2022-09-26T03:50:23.490Z,26.60
2022-09-26T03:51:23.465Z,26.63
2022-09-26T03:52:23.466Z,26.66
2022-09-26T03:53:23.465Z,26.66
2022-09-26T03:54:23.467Z,26.65
2022-09-26T03:55:23.466Z,26.57
2022-09-26T03:56:23.466Z,26.65
2022-09-26T03:57:23.466Z,26.62
2022-09-26T03:58:23.466Z,26.63
2022-09-26T03:59:23.466Z,26.62
2022-09-26T04:00:23.468Z,26.62
2022-09-26T04:01:23.557Z,26.72
2022-09-26T04:02:23.532Z,26.70
2022-09-26T04:03:23.465Z,26.58
2022-09-26T04:04:23.466Z,26.65
2022-09-26T04:05:23.466Z,26.66
2022-09-26T04:06:23.488Z,26.62
2022-09-26T04:07:23.465Z,26.63
2022-09-26T04:08:23.465Z,26.72
2022-09-26T04:09:23.561Z,26.66
2022-09-26T04:10:23.464Z,26.63
2022-09-26T04:11:23.464Z,26.70
2022-09-26T04:12:23.465Z,26.66
2022-09-26T04:13:49.488Z,26.63
2022-09-26T04:14:23.466Z,26.65
2022-09-26T04:15:23.472Z,26.62
2022-09-26T04:16:23.673Z,26.66
2022-09-26T04:17:23.465Z,26.60
2022-09-26T04:18:23.466Z,26.60
2022-09-26T04:19:23.468Z,26.65
2022-09-26T04:20:23.466Z,26.66
2022-09-26T04:21:23.464Z,26.62
2022-09-26T04:22:23.619Z,26.66
2022-09-26T04:23:23.465Z,26.66
2022-09-26T04:24:23.466Z,26.62
2022-09-26T04:25:23.465Z,26.58
2022-09-26T04:26:24.383Z,26.63
2022-09-26T04:27:23.463Z,26.66
2022-09-26T04:28:23.467Z,26.69
2022-09-26T04:29:23.463Z,26.63
2022-09-26T04:30:23.465Z,26.67
2022-09-26T04:31:23.560Z,26.65
2022-09-26T04:32:23.464Z,26.62
2022-09-26T04:33:23.464Z,26.65
2022-09-26T04:34:27.041Z,26.62
2022-09-26T04:35:23.464Z,26.66
2022-09-26T04:36:23.465Z,26.62
2022-09-26T04:37:23.462Z,26.65
2022-09-26T04:38:23.485Z,26.58
2022-09-26T04:39:23.462Z,26.63
2022-09-26T04:40:23.525Z,26.66
2022-09-26T04:41:23.463Z,26.66
2022-09-26T04:42:23.464Z,26.70
2022-09-26T04:43:23.464Z,26.65
2022-09-26T04:44:23.465Z,26.65
2022-09-26T04:45:23.508Z,26.73
2022-09-26T04:46:28.194Z,26.72
2022-09-26T04:47:23.463Z,26.65
2022-09-26T04:48:23.464Z,26.72
2022-09-26T04:49:23.462Z,26.75
2022-09-26T04:50:23.463Z,26.58
2022-09-26T04:51:23.463Z,26.69
2022-09-26T04:52:23.464Z,26.70
2022-09-26T04:53:23.461Z,26.70
2022-09-26T04:54:23.483Z,26.76
2022-09-26T04:55:23.461Z,26.72
2022-09-26T04:56:23.468Z,26.72
2022-09-26T04:57:23.463Z,26.76
2022-09-26T04:58:23.466Z,26.77
2022-09-26T04:59:23.463Z,26.75
2022-09-26T05:00:23.468Z,26.67
2022-09-26T05:01:23.574Z,26.67
2022-09-26T05:02:23.497Z,26.76
2022-09-26T05:03:23.461Z,26.69
2022-09-26T05:04:27.410Z,26.76
2022-09-26T05:05:23.461Z,26.72
2022-09-26T05:06:23.463Z,26.72
2022-09-26T05:07:23.467Z,26.72
2022-09-26T05:08:23.463Z,26.72
2022-09-26T05:09:23.477Z,26.73
2022-09-26T05:10:23.483Z,26.81
2022-09-26T05:11:23.460Z,26.77
2022-09-26T05:12:23.462Z,26.70
2022-09-26T05:13:23.463Z,26.76
2022-09-26T05:14:23.461Z,26.77
2022-09-26T05:15:23.467Z,26.80
2022-09-26T05:16:23.505Z,26.73
2022-09-26T05:17:23.461Z,26.84
2022-09-26T05:18:23.463Z,26.87
2022-09-26T05:19:23.461Z,26.81
2022-09-26T05:20:23.463Z,26.82
2022-09-26T05:21:23.462Z,26.88
2022-09-26T05:22:23.465Z,26.91
2022-09-26T05:23:23.467Z,26.92
2022-09-26T05:24:23.462Z,26.92
2022-09-26T05:25:23.462Z,26.91
2022-09-26T05:26:23.610Z,26.92
2022-09-26T05:27:23.464Z,26.97
2022-09-26T05:28:23.463Z,26.89
2022-09-26T05:29:23.464Z,26.97
2022-09-26T05:30:23.461Z,26.89
2022-09-26T05:31:23.562Z,26.97
2022-09-26T05:32:23.464Z,27.00
2022-09-26T05:33:23.463Z,27.09
2022-09-26T05:34:23.463Z,27.12
2022-09-26T05:35:23.462Z,27.17
2022-09-26T05:36:23.464Z,27.07
2022-09-26T05:37:23.462Z,27.17
2022-09-26T05:38:23.463Z,27.12
2022-09-26T05:39:23.465Z,27.17
2022-09-26T05:40:23.512Z,27.24
2022-09-26T05:41:23.466Z,27.19
2022-09-26T05:42:23.485Z,27.24
2022-09-26T05:43:23.464Z,27.19
2022-09-26T05:44:23.464Z,27.31
2022-09-26T05:45:23.466Z,27.29
2022-09-26T05:46:23.527Z,27.29
2022-09-26T05:47:23.481Z,27.34
2022-09-26T05:48:23.467Z,27.34
2022-09-26T05:49:23.471Z,27.37
2022-09-26T05:50:23.467Z,27.31
2022-09-26T05:51:23.520Z,27.40
2022-09-26T05:52:23.468Z,27.40
2022-09-26T05:53:23.470Z,27.29
2022-09-26T05:54:23.467Z,27.34
2022-09-26T05:55:23.470Z,27.32
2022-09-26T05:56:23.468Z,27.34
2022-09-26T05:57:23.472Z,27.31
2022-09-26T05:58:23.510Z,27.36
2022-09-26T05:59:23.472Z,27.40
2022-09-26T06:00:23.470Z,27.47
2022-09-26T06:01:23.564Z,27.31
2022-09-26T06:02:23.574Z,27.39
2022-09-26T06:03:23.474Z,27.44
2022-09-26T06:04:23.470Z,27.46
2022-09-26T06:05:23.475Z,27.54
2022-09-26T06:06:23.472Z,27.51
2022-09-26T06:07:23.483Z,27.57
2022-09-26T06:08:23.481Z,27.65
2022-09-26T06:09:23.475Z,27.57
2022-09-26T06:10:23.474Z,27.57
2022-09-26T06:11:23.475Z,27.57
2022-09-26T06:12:23.476Z,27.65
2022-09-26T06:13:23.477Z,27.69
2022-09-26T06:14:23.500Z,27.75
2022-09-26T06:15:23.478Z,27.60
2022-09-26T06:16:23.507Z,27.69
2022-09-26T06:17:23.480Z,27.67
2022-09-26T06:18:23.476Z,27.69
2022-09-26T06:19:23.623Z,27.70
2022-09-26T06:20:23.480Z,27.66
2022-09-26T06:21:23.481Z,27.72
2022-09-26T06:22:23.480Z,27.77
2022-09-26T06:23:23.481Z,27.72
2022-09-26T06:24:23.480Z,27.67
2022-09-26T06:25:23.483Z,27.70
2022-09-26T06:26:23.482Z,27.69
2022-09-26T06:27:23.483Z,27.69
2022-09-26T06:28:23.482Z,27.82
2022-09-26T06:29:23.485Z,27.79
2022-09-26T06:30:23.506Z,27.77
2022-09-26T06:31:23.567Z,27.78
2022-09-26T06:32:23.486Z,27.72
2022-09-26T06:33:23.488Z,27.79
2022-09-26T06:34:23.485Z,27.78
2022-09-26T06:35:23.487Z,27.77
2022-09-26T06:36:23.492Z,27.77
2022-09-26T06:37:23.496Z,27.78
2022-09-26T06:38:23.490Z,27.78
2022-09-26T06:39:23.491Z,27.74
2022-09-26T06:40:23.541Z,27.75
2022-09-26T06:41:23.492Z,27.75
2022-09-26T06:42:23.493Z,27.74
2022-09-26T06:43:23.495Z,27.75
2022-09-26T06:44:23.493Z,27.75
2022-09-26T06:45:23.494Z,27.77
2022-09-26T06:46:23.659Z,27.75
2022-09-26T06:47:23.496Z,27.78
2022-09-26T06:48:24.694Z,27.79
2022-09-26T06:49:23.496Z,27.81
2022-09-26T06:50:23.496Z,27.75
2022-09-26T06:51:23.497Z,27.82
2022-09-26T06:52:23.497Z,27.78
2022-09-26T06:53:23.500Z,27.88
2022-09-26T06:54:23.501Z,27.87
2022-09-26T06:55:23.499Z,27.87
2022-09-26T06:56:23.501Z,27.82
2022-09-26T06:57:23.520Z,27.85
2022-09-26T06:58:23.501Z,27.93
2022-09-26T06:59:23.502Z,27.84
2022-09-26T07:00:23.570Z,27.84
2022-09-26T07:01:23.657Z,27.84
2022-09-26T07:02:23.601Z,27.88
2022-09-26T07:03:23.506Z,27.82
2022-09-26T07:04:23.505Z,27.88
2022-09-26T07:05:23.507Z,27.88
2022-09-26T07:06:23.506Z,27.90
2022-09-26T07:07:23.509Z,27.93
2022-09-26T07:08:37.683Z,27.85
2022-09-26T07:09:23.513Z,27.92
2022-09-26T07:10:23.508Z,27.90
2022-09-26T07:12:09.370Z,27.87
2022-09-26T07:12:23.510Z,27.81
2022-09-26T07:13:23.513Z,27.87
2022-09-26T07:14:23.511Z,27.84
2022-09-26T07:15:23.514Z,27.84
2022-09-26T07:16:23.578Z,27.93
2022-09-26T07:17:23.515Z,27.85
2022-09-26T07:18:23.548Z,27.85
2022-09-26T07:19:23.519Z,27.81
2022-09-26T07:20:23.517Z,27.82
2022-09-26T07:21:23.518Z,27.87
2022-09-26T07:22:23.516Z,27.79
2022-09-26T07:23:23.522Z,27.79
2022-09-26T07:24:23.521Z,27.87
2022-09-26T07:25:23.522Z,27.82
2022-09-26T07:26:23.522Z,27.84
2022-09-26T07:27:23.523Z,27.87
2022-09-26T07:28:23.523Z,27.90
2022-09-26T07:29:23.525Z,27.85
2022-09-26T07:30:23.535Z,27.85
2022-09-26T07:31:23.702Z,27.90
2022-09-26T07:32:23.524Z,27.88
2022-09-26T07:33:23.525Z,27.88
2022-09-26T07:34:23.570Z,27.92
2022-09-26T07:35:23.528Z,27.97
2022-09-26T07:36:23.530Z,27.87
2022-09-26T07:37:23.529Z,27.82
2022-09-26T07:38:23.539Z,27.87
2022-09-26T07:39:23.530Z,27.85
2022-09-26T07:40:23.639Z,27.81
2022-09-26T07:41:23.536Z,27.85
2022-09-26T07:42:23.530Z,27.93
2022-09-26T07:43:42.509Z,27.85
2022-09-26T07:45:16.422Z,27.84
2022-09-26T07:45:29.451Z,27.90
2022-09-26T07:46:23.566Z,27.85
2022-09-26T07:47:23.535Z,27.84
2022-09-26T07:48:23.534Z,27.94
2022-09-26T07:49:23.537Z,27.90
2022-09-26T07:50:23.612Z,27.78
2022-09-26T07:51:23.540Z,27.85
2022-09-26T07:52:23.546Z,27.92
2022-09-26T07:53:23.539Z,27.90
2022-09-26T07:54:23.539Z,27.87
2022-09-26T07:55:23.541Z,27.85
2022-09-26T07:56:23.540Z,27.85
2022-09-26T07:57:23.542Z,27.93
2022-09-26T07:58:23.541Z,27.96
2022-09-26T07:59:23.543Z,27.92
2022-09-26T08:00:23.543Z,27.96
2022-09-26T08:01:23.670Z,27.90
2022-09-26T08:02:23.686Z,27.93
2022-09-26T08:03:23.680Z,27.84
2022-09-26T08:04:23.546Z,27.87
2022-09-26T08:05:23.548Z,27.96
2022-09-26T08:06:23.644Z,27.93
2022-09-26T08:07:23.548Z,27.85
2022-09-26T08:08:23.549Z,27.90
2022-09-26T08:09:23.550Z,27.88
2022-09-26T08:10:23.553Z,27.82
2022-09-26T08:11:23.552Z,27.85
2022-09-26T08:12:23.552Z,27.82
2022-09-26T08:13:23.556Z,27.84
2022-09-26T08:14:23.552Z,27.85
2022-09-26T08:15:23.561Z,27.85
2022-09-26T08:16:23.832Z,27.96
2022-09-26T08:17:23.557Z,27.84
2022-09-26T08:18:23.556Z,27.88
2022-09-26T08:19:23.557Z,27.93
2022-09-26T08:20:26.284Z,27.85
2022-09-26T08:21:23.561Z,27.85
2022-09-26T08:22:23.580Z,27.93
2022-09-26T08:23:23.560Z,27.93
2022-09-26T08:24:23.563Z,27.94
2022-09-26T08:25:23.563Z,27.92
2022-09-26T08:26:23.562Z,27.94
2022-09-26T08:27:23.567Z,27.96
2022-09-26T08:28:23.563Z,27.96
2022-09-26T08:29:23.577Z,27.93
2022-09-26T08:30:23.563Z,27.92
2022-09-26T08:31:23.611Z,27.92
2022-09-26T08:32:23.570Z,27.93
2022-09-26T08:33:23.567Z,27.90
2022-09-26T08:34:25.588Z,27.93
2022-09-26T08:35:23.572Z,27.92
2022-09-26T08:36:23.570Z,27.93
2022-09-26T08:37:23.572Z,28.06
2022-09-26T08:38:23.589Z,27.93
2022-09-26T08:39:23.573Z,27.97
2022-09-26T08:40:23.644Z,28.07
2022-09-26T08:41:23.575Z,27.94
2022-09-26T08:42:23.582Z,27.99
2022-09-26T08:43:23.575Z,27.99
2022-09-26T08:44:23.574Z,28.11
2022-09-26T08:45:23.578Z,28.15
2022-09-26T08:46:23.650Z,28.15
2022-09-26T08:47:23.579Z,28.15
2022-09-26T08:48:23.579Z,28.12
2022-09-26T08:49:23.582Z,28.19
2022-09-26T08:50:23.587Z,28.17
2022-09-26T08:51:28.908Z,28.21
2022-09-26T08:52:23.582Z,28.21
2022-09-26T08:53:23.584Z,28.14
2022-09-26T08:54:23.650Z,28.14
2022-09-26T08:55:23.584Z,28.19
2022-09-26T08:56:23.584Z,28.24
2022-09-26T08:57:23.594Z,28.19
2022-09-26T08:58:28.527Z,28.22
2022-09-26T08:59:23.588Z,28.29
2022-09-26T09:00:23.589Z,28.18
2022-09-26T09:01:23.698Z,28.19
2022-09-26T09:02:23.765Z,28.24
2022-09-26T09:03:23.592Z,28.21
2022-09-26T09:04:23.592Z,28.21
2022-09-26T09:05:23.595Z,28.18
2022-09-26T09:06:23.594Z,28.29
2022-09-26T09:07:23.602Z,28.21
2022-09-26T09:08:23.594Z,28.19
2022-09-26T09:09:23.596Z,28.22
2022-09-26T09:10:23.619Z,28.25
2022-09-26T09:11:23.598Z,28.14
2022-09-26T09:12:25.495Z,28.15
2022-09-26T09:13:23.599Z,28.15
2022-09-26T09:14:23.599Z,28.14
2022-09-26T09:15:26.260Z,28.18
2022-09-26T09:16:23.714Z,28.12
2022-09-26T09:17:23.603Z,28.12
2022-09-26T09:18:23.602Z,28.12
2022-09-26T09:19:23.605Z,28.03
2022-09-26T09:20:23.605Z,28.11
2022-09-26T09:21:23.608Z,28.09
2022-09-26T09:22:23.605Z,28.06
2022-09-26T09:23:23.608Z,28.02
2022-09-26T09:24:23.609Z,28.11
2022-09-26T09:25:23.611Z,28.06
2022-09-26T09:28:23.611Z,27.97
2022-09-26T09:29:23.613Z,28.00
2022-09-26T09:30:23.613Z,28.04
2022-09-26T09:31:23.657Z,28.00
2022-09-26T09:32:23.615Z,28.14
2022-09-26T09:33:23.617Z,28.03
2022-09-26T09:34:23.615Z,28.12
2022-09-26T09:35:23.618Z,28.03
2022-09-26T09:36:23.618Z,28.11
2022-09-26T09:37:23.621Z,28.12
2022-09-26T09:38:23.619Z,28.17
2022-09-26T09:39:23.622Z,28.15
2022-09-26T09:40:23.735Z,28.17
2022-09-26T09:41:23.627Z,28.19
2022-09-26T09:42:23.650Z,28.27
2022-09-26T09:43:23.623Z,28.21
2022-09-26T09:44:23.624Z,28.24
2022-09-26T09:45:23.626Z,28.09
2022-09-26T09:46:23.721Z,28.19
2022-09-26T09:47:23.630Z,28.25
2022-09-26T09:48:23.628Z,28.12
2022-09-26T09:49:23.631Z,28.09
2022-09-26T09:50:23.629Z,28.11
2022-09-26T09:51:23.630Z,28.11
2022-09-26T09:52:23.632Z,28.21
2022-09-26T09:53:23.634Z,28.11
2022-09-26T09:54:23.632Z,28.11
2022-09-26T09:55:23.633Z,28.11
2022-09-26T09:56:23.635Z,28.24
2022-09-26T09:57:23.636Z,28.17
2022-09-26T09:58:23.664Z,28.09
2022-09-26T09:59:23.638Z,28.24
2022-09-26T10:00:23.640Z,28.19
2022-09-26T10:01:23.638Z,28.19
2022-09-26T10:02:23.682Z,28.11
2022-09-26T10:03:23.666Z,28.22
2022-09-26T10:04:23.642Z,28.18
2022-09-26T10:05:23.643Z,28.18
2022-09-26T10:06:44.375Z,28.19
2022-09-26T10:07:23.643Z,28.12
2022-09-26T10:08:23.647Z,28.12
2022-09-26T10:09:38.983Z,28.15
2022-09-26T10:10:23.646Z,28.21
2022-09-26T10:11:23.647Z,28.12
2022-09-26T10:12:23.649Z,28.15
2022-09-26T10:13:23.650Z,28.14
2022-09-26T10:14:23.676Z,28.22
2022-09-26T10:15:23.650Z,28.12
2022-09-26T10:16:23.729Z,28.19
2022-09-26T10:17:23.652Z,28.14
2022-09-26T10:18:25.729Z,28.12
2022-09-26T10:19:23.658Z,28.09
2022-09-26T10:20:23.656Z,28.11
2022-09-26T10:21:23.656Z,28.25
2022-09-26T10:22:23.657Z,28.29
2022-09-26T10:23:23.657Z,28.22
2022-09-26T10:24:23.658Z,28.24
2022-09-26T10:25:23.668Z,28.12
2022-09-26T10:26:26.601Z,28.18
2022-09-26T10:27:23.662Z,28.14
2022-09-26T10:28:23.662Z,28.24
2022-09-26T10:29:23.663Z,28.22
2022-09-26T10:30:23.691Z,28.07
2022-09-26T10:31:23.770Z,28.14
2022-09-26T10:32:23.666Z,28.25
2022-09-26T10:33:23.666Z,28.15
2022-09-26T10:34:23.667Z,28.18
2022-09-26T10:35:23.666Z,28.21
2022-09-26T10:36:23.668Z,28.14
2022-09-26T10:37:23.669Z,28.22
2022-09-26T10:38:23.670Z,28.21
2022-09-26T10:39:23.671Z,28.19
2022-09-26T10:40:23.723Z,28.19
2022-09-26T10:41:23.672Z,28.14
2022-09-26T10:42:24.484Z,28.18
2022-09-26T10:43:23.674Z,28.15
2022-09-26T10:44:23.675Z,28.15
2022-09-26T10:45:23.676Z,28.22
2022-09-26T10:46:23.764Z,28.17
2022-09-26T10:47:23.677Z,28.24
2022-09-26T10:48:23.679Z,28.22
2022-09-26T10:49:23.687Z,28.14
2022-09-26T10:50:23.681Z,28.18
2022-09-26T10:51:23.683Z,28.14
2022-09-26T10:52:23.705Z,28.21
2022-09-26T10:53:23.683Z,28.14
2022-09-26T10:54:23.683Z,28.15
2022-09-26T10:55:23.692Z,28.15
2022-09-26T10:56:23.687Z,28.19
2022-09-26T10:57:23.686Z,28.14
2022-09-26T10:58:23.687Z,28.04
2022-09-26T10:59:23.687Z,28.03
2022-09-26T11:00:23.689Z,28.00
2022-09-26T11:01:23.720Z,28.14
2022-09-26T11:02:23.717Z,28.07
2022-09-26T11:03:23.753Z,28.12
2022-09-26T11:04:23.692Z,28.09
2022-09-26T11:05:23.692Z,28.06
2022-09-26T11:06:24.241Z,28.06
2022-09-26T11:07:23.698Z,28.07
2022-09-26T11:08:23.696Z,28.02
2022-09-26T11:09:23.698Z,27.97
2022-09-26T11:10:23.697Z,27.94
2022-09-26T11:11:23.698Z,27.99
2022-09-26T11:12:23.700Z,27.96
2022-09-26T11:13:23.699Z,27.96
2022-09-26T11:14:27.846Z,27.99
2022-09-26T11:15:23.706Z,27.94
2022-09-26T11:16:23.787Z,27.90
2022-09-26T11:17:23.703Z,27.94
2022-09-26T11:18:23.736Z,27.88
2022-09-26T11:19:23.703Z,27.93
2022-09-26T11:20:23.705Z,27.90
2022-09-26T11:21:31.693Z,27.90
2022-09-26T11:22:23.707Z,27.87
2022-09-26T11:23:23.707Z,27.93
2022-09-26T11:24:23.708Z,27.92
2022-09-26T11:25:23.707Z,27.88
2022-09-26T11:26:23.711Z,27.82
2022-09-26T11:27:23.716Z,27.96
2022-09-26T11:28:23.711Z,27.88
2022-09-26T11:29:23.711Z,27.90
2022-09-26T11:30:23.713Z,27.82
2022-09-26T11:31:23.760Z,27.90
2022-09-26T11:32:23.744Z,27.82
2022-09-26T11:33:23.714Z,27.93
2022-09-26T11:34:23.737Z,27.72
2022-09-26T11:35:23.727Z,27.78
2022-09-26T11:36:23.719Z,27.85
2022-09-26T11:37:23.718Z,27.84
2022-09-26T11:38:23.718Z,27.84
2022-09-26T11:39:23.718Z,27.67
2022-09-26T11:40:23.776Z,27.81
2022-09-26T11:41:23.720Z,27.78
2022-09-26T11:42:23.722Z,27.82
2022-09-26T11:43:23.722Z,27.90
2022-09-26T11:44:23.721Z,27.90
2022-09-26T11:45:23.721Z,27.81
2022-09-26T11:46:23.770Z,27.78
2022-09-26T11:47:23.724Z,27.78
2022-09-26T11:48:23.732Z,27.90
2022-09-26T11:49:23.725Z,27.84
2022-09-26T11:50:23.754Z,27.79
2022-09-26T11:51:23.725Z,27.75
2022-09-26T11:52:23.726Z,27.87
2022-09-26T11:53:23.731Z,27.88
2022-09-26T11:54:23.728Z,27.77
2022-09-26T11:55:23.728Z,27.88
2022-09-26T11:56:23.730Z,27.82
2022-09-26T11:57:23.730Z,27.81
2022-09-26T11:58:23.731Z,27.90
2022-09-26T11:59:23.737Z,27.82
2022-09-26T12:00:23.732Z,27.87
2022-09-26T12:01:23.731Z,27.92
2022-09-26T12:02:23.917Z,27.92
2022-09-26T12:03:23.900Z,27.84
2022-09-26T12:04:23.736Z,27.79
2022-09-26T12:05:27.016Z,27.87
2022-09-26T12:06:23.757Z,27.92
2022-09-26T12:07:23.736Z,27.92
2022-09-26T12:08:23.738Z,27.84
2022-09-26T12:09:23.739Z,28.00
2022-09-26T12:10:23.739Z,27.90
2022-09-26T12:11:23.737Z,27.88
2022-09-26T12:12:23.740Z,27.90
2022-09-26T12:13:23.741Z,27.87
2022-09-26T12:14:23.740Z,27.82
2022-09-26T12:15:23.856Z,27.82
2022-09-26T12:16:23.866Z,27.93
2022-09-26T12:17:23.742Z,27.99
2022-09-26T12:18:23.752Z,27.81
2022-09-26T12:19:23.743Z,27.85
2022-09-26T12:20:23.746Z,27.82
2022-09-26T12:21:23.744Z,27.84
2022-09-26T12:22:23.805Z,27.90
2022-09-26T12:23:23.745Z,27.88
2022-09-26T12:24:23.751Z,27.85
2022-09-26T12:25:23.750Z,27.85
2022-09-26T12:26:23.750Z,27.84
2022-09-26T12:27:23.748Z,27.92
2022-09-26T12:28:23.751Z,27.82
2022-09-26T12:29:23.751Z,27.85
2022-09-26T12:30:23.755Z,27.92
2022-09-26T12:31:23.822Z,27.78
2022-09-26T12:32:23.754Z,27.82
2022-09-26T12:33:23.755Z,27.82
2022-09-26T12:34:23.754Z,27.74
2022-09-26T12:35:23.755Z,27.75
2022-09-26T12:36:23.756Z,27.81
2022-09-26T12:37:23.757Z,27.81
2022-09-26T12:38:23.780Z,27.79
2022-09-26T12:39:23.758Z,27.85
2022-09-26T12:40:23.792Z,27.75
2022-09-26T12:41:23.764Z,27.87
2022-09-26T12:42:23.760Z,27.81
2022-09-26T12:43:23.760Z,27.79
2022-09-26T12:44:23.766Z,27.85
2022-09-26T12:45:23.762Z,27.79
2022-09-26T12:46:23.847Z,27.79
2022-09-26T12:47:23.764Z,27.84
2022-09-26T12:48:23.764Z,27.81
2022-09-26T12:49:23.763Z,27.78
2022-09-26T12:50:23.764Z,27.79
2022-09-26T12:51:23.766Z,27.84
2022-09-26T12:52:27.096Z,27.79
2022-09-26T12:53:23.766Z,27.85
2022-09-26T12:54:23.787Z,27.87